createdAt,value
2018-10-16T00:00:59.378Z,13.63
2018-10-16T00:03:27.847Z,14.77
2018-10-16T00:05:56.261Z,15.60
2018-10-16T00:08:24.682Z,15.70
2018-10-16T00:10:53.139Z,13.70
2018-10-16T00:13:21.527Z,14.00
2018-10-16T00:15:49.902Z,15.20
2018-10-16T00:18:18.365Z,14.13
2018-10-16T00:20:46.855Z,14.00
2018-10-16T00:23:15.282Z,14.10
2018-10-16T00:25:43.677Z,13.90
2018-10-16T00:28:12.094Z,13.87
2018-10-16T00:30:40.560Z,14.40
2018-10-16T00:33:09.029Z,13.87
2018-10-16T00:35:37.459Z,14.10
2018-10-16T00:38:06.000Z,16.03
2018-10-16T00:40:34.477Z,15.20
2018-10-16T00:43:03.912Z,14.43
2018-10-16T00:45:32.316Z,13.70
2018-10-16T00:48:00.726Z,14.90
2018-10-16T00:50:29.155Z,14.47
2018-10-16T00:52:57.595Z,13.70
2018-10-16T00:55:27.398Z,14.98
2018-10-16T00:57:55.878Z,14.07
2018-10-16T01:00:24.422Z,15.03
2018-10-16T01:02:52.910Z,13.63
2018-10-16T01:05:21.326Z,15.20
2018-10-16T01:07:49.742Z,14.60
2018-10-16T01:10:18.224Z,15.90
2018-10-16T01:12:46.659Z,13.50
2018-10-16T01:15:15.217Z,14.33
2018-10-16T01:17:43.661Z,13.70
2018-10-16T01:20:13.165Z,13.60
2018-10-16T01:22:42.018Z,13.53
2018-10-16T01:25:11.483Z,13.70
2018-10-16T01:27:40.433Z,13.67
2018-10-16T01:30:08.969Z,14.33
2018-10-16T01:32:37.822Z,13.93
2018-10-16T01:35:07.338Z,14.00
2018-10-16T01:37:35.775Z,14.97
2018-10-16T01:40:05.749Z,13.73
2018-10-16T01:42:34.170Z,13.80
2018-10-16T01:45:02.825Z,13.70
2018-10-16T01:47:31.227Z,12.87
2018-10-16T01:49:59.647Z,14.03
2018-10-16T01:52:28.029Z,13.63
2018-10-16T01:54:56.463Z,16.33
2018-10-16T01:57:25.047Z,13.63
2018-10-16T01:59:53.491Z,14.00
2018-10-16T02:02:21.945Z,14.43
2018-10-16T02:04:50.321Z,13.57
2018-10-16T02:07:18.827Z,15.33
2018-10-16T02:09:47.343Z,13.17
2018-10-16T02:12:15.821Z,13.40
2018-10-16T02:14:44.333Z,13.30
2018-10-16T02:17:12.806Z,13.47
2018-10-16T02:19:41.341Z,14.13
2018-10-16T02:22:09.761Z,13.97
2018-10-16T02:24:38.257Z,13.83
2018-10-16T02:27:06.784Z,13.20
2018-10-16T02:29:35.207Z,13.50
2018-10-16T02:32:04.052Z,13.77
2018-10-16T02:34:32.422Z,13.23
2018-10-16T02:37:00.873Z,13.47
2018-10-16T02:39:29.270Z,14.10
2018-10-16T02:41:57.669Z,14.80
2018-10-16T02:44:26.874Z,14.20
2018-10-16T02:46:55.301Z,13.57
2018-10-16T02:49:23.832Z,14.60
2018-10-16T02:51:52.296Z,13.37
2018-10-16T02:54:20.660Z,13.70
2018-10-16T02:56:49.026Z,13.37
2018-10-16T02:59:17.438Z,13.73
2018-10-16T03:01:45.866Z,14.10
2018-10-16T03:04:14.321Z,14.73
2018-10-16T03:06:42.835Z,14.40
2018-10-16T03:09:11.936Z,14.10
2018-10-16T03:11:41.190Z,14.33
2018-10-16T03:14:09.579Z,14.70
2018-10-16T03:16:37.986Z,14.17
2018-10-16T03:19:06.426Z,14.60
2018-10-16T03:21:35.492Z,13.87
2018-10-16T03:24:03.947Z,14.70
2018-10-16T03:26:32.460Z,14.10
2018-10-16T03:29:00.920Z,14.43
2018-10-16T03:31:29.309Z,14.53
2018-10-16T03:33:58.435Z,14.93
2018-10-16T03:36:26.898Z,15.03
2018-10-16T03:38:55.867Z,15.93
2018-10-16T03:41:24.546Z,16.23
2018-10-16T03:43:58.328Z,15.03
2018-10-16T03:46:27.055Z,15.28
2018-10-16T03:48:55.516Z,15.07
2018-10-16T03:51:24.189Z,15.83
2018-10-16T03:53:55.732Z,14.30
2018-10-16T03:56:24.645Z,17.07
2018-10-16T03:58:53.053Z,15.27
2018-10-16T04:01:21.884Z,15.30
2018-10-16T04:03:50.563Z,16.70
2018-10-16T04:06:19.118Z,15.37
2018-10-16T04:08:47.802Z,15.07
2018-10-16T04:11:16.237Z,14.63
2018-10-16T04:13:44.647Z,15.27
2018-10-16T04:16:13.150Z,16.00
2018-10-16T04:18:41.566Z,16.20
2018-10-16T04:21:10.708Z,15.37
2018-10-16T04:23:40.944Z,16.00
2018-10-16T04:26:09.766Z,15.67
2018-10-16T04:28:38.158Z,15.80
2018-10-16T04:31:07.220Z,15.97
2018-10-16T04:33:35.632Z,16.17
2018-10-16T04:36:04.072Z,18.20
2018-10-16T04:38:32.485Z,16.47
2018-10-16T04:41:01.728Z,16.13
2018-10-16T04:43:30.166Z,15.73
2018-10-16T04:45:58.626Z,17.20
2018-10-16T04:48:27.135Z,16.37
2018-10-16T04:50:55.515Z,15.90
2018-10-16T04:53:23.919Z,19.47
2018-10-16T04:55:52.437Z,17.60
2018-10-16T04:58:20.903Z,16.17
2018-10-16T05:00:49.362Z,16.70
2018-10-16T05:03:17.800Z,17.60
2018-10-16T05:05:46.200Z,17.70
2018-10-16T05:08:14.622Z,17.10
2018-10-16T05:10:43.178Z,16.93
2018-10-16T05:13:11.654Z,17.43
2018-10-16T05:15:40.003Z,17.57
2018-10-16T05:18:08.617Z,16.47
2018-10-16T05:20:36.993Z,16.87
2018-10-16T05:23:05.503Z,16.37
2018-10-16T05:25:33.977Z,17.03
2018-10-16T05:28:02.754Z,16.03
2018-10-16T05:30:31.246Z,17.50
2018-10-16T05:32:59.741Z,17.10
2018-10-16T05:35:28.174Z,17.70
2018-10-16T05:37:56.642Z,17.83
2018-10-16T05:40:25.025Z,18.50
2018-10-16T05:42:53.494Z,17.50
2018-10-16T05:45:21.954Z,17.93
2018-10-16T05:47:50.630Z,17.67
2018-10-16T05:50:19.085Z,18.20
2018-10-16T05:52:47.583Z,18.00
2018-10-16T05:55:16.022Z,17.67
2018-10-16T05:57:44.441Z,18.27
2018-10-16T06:00:24.020Z,16.13
2018-10-16T06:02:52.464Z,18.17
2018-10-16T06:05:20.908Z,16.57
2018-10-16T06:07:49.318Z,16.80
2018-10-16T06:10:17.729Z,17.17
2018-10-16T06:12:46.898Z,17.43
2018-10-16T06:15:15.419Z,17.47
2018-10-16T06:17:43.839Z,18.03
2018-10-16T06:20:13.160Z,18.80
2018-10-16T06:22:42.467Z,18.13
2018-10-16T06:25:11.409Z,18.87
2018-10-16T06:27:41.027Z,22.90
2018-10-16T06:30:09.781Z,21.83
2018-10-16T06:32:38.564Z,20.03
2018-10-16T06:35:07.823Z,21.93
2018-10-16T06:37:36.370Z,18.97
2018-10-16T06:40:05.806Z,22.30
2018-10-16T06:42:34.248Z,21.90
2018-10-16T06:45:02.705Z,21.00
2018-10-16T06:47:31.359Z,20.90
2018-10-16T06:49:59.760Z,21.27
2018-10-16T06:52:28.197Z,21.47
2018-10-16T06:54:57.296Z,21.17
2018-10-16T06:57:25.741Z,20.17
2018-10-16T06:59:54.170Z,20.67
2018-10-16T07:02:22.719Z,24.30
2018-10-16T07:04:51.290Z,20.87
2018-10-16T07:07:19.980Z,21.50
2018-10-16T07:09:48.194Z,20.93
2018-10-16T07:12:16.655Z,20.77
2018-10-16T07:14:45.195Z,22.93
2018-10-16T07:17:13.607Z,21.30
2018-10-16T07:19:42.048Z,21.07
2018-10-16T07:22:11.730Z,20.70
2018-10-16T07:24:40.325Z,21.43
2018-10-16T07:27:09.351Z,22.30
2018-10-16T07:29:37.762Z,21.97
2018-10-16T07:32:06.427Z,21.53
2018-10-16T07:34:35.602Z,21.13
2018-10-16T07:37:04.029Z,20.93
2018-10-16T07:39:32.990Z,21.17
2018-10-16T07:42:01.430Z,21.47
2018-10-16T07:44:30.018Z,22.83
2018-10-16T07:46:58.553Z,21.00
2018-10-16T07:49:27.567Z,21.07
2018-10-16T07:51:56.011Z,21.10
2018-10-16T07:54:24.445Z,20.20
2018-10-16T07:56:52.967Z,21.00
2018-10-16T07:59:21.413Z,21.60
2018-10-16T08:01:49.844Z,20.20
2018-10-16T08:04:18.327Z,20.40
2018-10-16T08:06:46.873Z,19.80
2018-10-16T08:09:16.519Z,18.23
2018-10-16T08:11:47.293Z,17.77
2018-10-16T08:14:16.966Z,17.63
2018-10-16T08:16:46.728Z,17.23
2018-10-16T08:19:15.413Z,19.00
2018-10-16T08:21:44.535Z,17.53
2018-10-16T08:24:13.569Z,17.03
2018-10-16T08:26:42.081Z,16.97
2018-10-16T08:29:10.508Z,17.53
2018-10-16T08:31:39.686Z,15.33
2018-10-16T08:34:08.151Z,17.77
2018-10-16T08:36:36.601Z,15.60
2018-10-16T08:39:15.546Z,14.37
2018-10-16T08:41:51.743Z,14.40
2018-10-16T08:44:41.111Z,13.67
2018-10-16T08:47:20.816Z,14.33
2018-10-16T08:52:07.086Z,21.47
2018-10-16T08:54:35.546Z,14.93
2018-10-16T08:57:03.971Z,14.43
2018-10-16T08:59:32.392Z,14.13
2018-10-16T09:02:01.742Z,15.33
2018-10-16T09:04:30.198Z,17.80
2018-10-16T09:06:58.636Z,13.57
2018-10-16T09:09:27.045Z,13.70
2018-10-16T09:11:55.466Z,15.93
2018-10-16T09:14:23.899Z,13.50
2018-10-16T09:16:52.342Z,13.67
2018-10-16T09:19:20.752Z,12.40
2018-10-16T09:21:49.196Z,12.50
2018-10-16T09:24:17.627Z,11.07
2018-10-16T09:26:46.077Z,15.57
2018-10-16T09:29:14.597Z,14.30
2018-10-16T09:31:43.131Z,13.03
2018-10-16T09:34:11.559Z,11.63
2018-10-16T09:36:39.958Z,12.53
2018-10-16T09:39:10.044Z,10.77
2018-10-16T09:41:38.497Z,11.93
2018-10-16T09:44:07.007Z,14.20
2018-10-16T09:46:35.439Z,13.53
2018-10-16T09:49:03.917Z,11.67
2018-10-16T09:51:32.338Z,9.73
2018-10-16T09:54:00.754Z,12.57
2018-10-16T09:56:29.152Z,11.50
2018-10-16T09:58:57.585Z,9.90
2018-10-16T10:01:31.186Z,11.00
2018-10-16T10:03:59.581Z,10.83
2018-10-16T10:06:28.062Z,12.00
2018-10-16T10:08:56.482Z,10.03
2018-10-16T10:11:24.850Z,8.40
2018-10-16T10:13:53.286Z,12.67
2018-10-16T10:16:21.722Z,14.33
2018-10-16T10:18:50.246Z,10.23
2018-10-16T10:21:18.670Z,8.50
2018-10-16T10:23:47.204Z,8.47
2018-10-16T10:26:15.616Z,10.07
2018-10-16T10:28:44.088Z,9.40
2018-10-16T10:31:12.492Z,9.33
2018-10-16T10:33:40.948Z,8.97
2018-10-16T10:36:10.440Z,7.73
2018-10-16T10:38:38.972Z,9.97
2018-10-16T10:41:07.510Z,8.07
2018-10-16T10:43:36.084Z,9.20
2018-10-16T10:46:04.973Z,10.57
2018-10-16T10:48:33.537Z,11.90
2018-10-16T10:51:02.189Z,8.57
2018-10-16T10:53:30.390Z,9.07
2018-10-16T10:55:58.827Z,11.33
2018-10-16T10:58:28.465Z,12.10
2018-10-16T11:00:56.886Z,13.10
2018-10-16T11:03:25.452Z,8.13
2018-10-16T11:05:53.730Z,11.03
2018-10-16T11:08:22.278Z,7.50
2018-10-16T11:10:50.793Z,10.77
2018-10-16T11:13:19.252Z,8.37
2018-10-16T11:15:47.614Z,7.90
2018-10-16T11:18:15.987Z,9.07
2018-10-16T11:20:44.402Z,9.53
2018-10-16T11:23:12.851Z,10.93
2018-10-16T11:25:41.276Z,9.57
2018-10-16T11:28:09.691Z,10.20
2018-10-16T11:30:38.151Z,8.77
2018-10-16T11:33:06.629Z,9.97
2018-10-16T11:35:35.062Z,11.73
2018-10-16T11:38:03.525Z,12.20
2018-10-16T11:40:31.972Z,10.80
2018-10-16T11:43:00.443Z,13.87
2018-10-16T11:45:29.071Z,8.97
2018-10-16T11:47:57.535Z,8.70
2018-10-16T11:50:26.049Z,8.00
2018-10-16T11:52:54.480Z,20.80
2018-10-16T11:55:25.901Z,9.40
2018-10-16T11:57:54.255Z,9.60
2018-10-16T12:00:24.791Z,11.57
2018-10-16T12:02:54.102Z,9.97
2018-10-16T12:05:22.911Z,8.80
2018-10-16T12:07:52.220Z,9.53
2018-10-16T12:10:20.630Z,13.07
2018-10-16T12:12:49.028Z,8.23
2018-10-16T12:15:17.582Z,8.53
2018-10-16T12:19:54.707Z,9.87
2018-10-16T12:22:23.119Z,7.93
2018-10-16T12:24:51.642Z,8.03
2018-10-16T12:27:20.104Z,12.57
2018-10-16T12:29:48.581Z,11.97
2018-10-16T12:32:17.055Z,9.80
2018-10-16T12:34:46.006Z,14.40
2018-10-16T12:37:14.465Z,11.13
2018-10-16T12:39:43.033Z,7.27
2018-10-16T12:42:11.573Z,10.87
2018-10-16T12:44:40.067Z,8.40
2018-10-16T12:47:08.599Z,7.50
2018-10-16T12:49:36.913Z,8.73
2018-10-16T12:52:05.369Z,12.40
2018-10-16T12:54:33.802Z,9.30
2018-10-16T12:57:02.272Z,13.10
2018-10-16T12:59:30.842Z,10.77
2018-10-16T13:01:59.244Z,15.97
2018-10-16T13:04:28.365Z,9.75
2018-10-16T13:06:59.682Z,10.53
2018-10-16T13:09:28.222Z,10.63
2018-10-16T13:11:57.153Z,9.83
2018-10-16T13:14:25.967Z,9.93
2018-10-16T13:16:54.444Z,8.87
2018-10-16T13:19:22.744Z,8.87
2018-10-16T13:21:51.199Z,7.27
2018-10-16T13:24:19.548Z,8.73
2018-10-16T13:26:47.985Z,10.17
2018-10-16T13:29:16.472Z,12.47
2018-10-16T13:31:44.813Z,7.63
2018-10-16T13:34:13.341Z,11.50
2018-10-16T13:36:41.861Z,10.70
2018-10-16T13:39:10.204Z,7.13
2018-10-16T13:41:38.650Z,15.17
2018-10-16T13:44:07.164Z,8.90
2018-10-16T13:46:35.647Z,9.47
2018-10-16T13:49:04.067Z,12.03
2018-10-16T13:51:33.198Z,13.00
2018-10-16T13:54:01.555Z,7.57
2018-10-16T13:56:29.954Z,11.63
2018-10-16T13:58:58.466Z,8.63
2018-10-16T14:01:26.857Z,7.73
2018-10-16T14:03:55.254Z,10.80
2018-10-16T14:06:23.809Z,8.20
2018-10-16T14:08:52.261Z,12.63
2018-10-16T14:11:20.658Z,8.37
2018-10-16T14:13:49.201Z,16.30
2018-10-16T14:16:17.741Z,7.83
2018-10-16T14:18:46.063Z,12.57
2018-10-16T14:21:14.770Z,11.57
2018-10-16T14:23:43.216Z,10.37
2018-10-16T14:26:11.724Z,13.03
2018-10-16T14:28:40.048Z,10.07
2018-10-16T14:31:08.444Z,13.53
2018-10-16T14:33:36.894Z,13.50
2018-10-16T14:36:05.484Z,17.80
2018-10-16T14:38:33.978Z,12.33
2018-10-16T14:41:02.379Z,13.97
2018-10-16T14:43:31.239Z,15.40
2018-10-16T14:46:00.359Z,15.17
2018-10-16T14:48:28.810Z,14.87
2018-10-16T14:50:57.325Z,18.00
2018-10-16T14:53:25.773Z,17.50
2018-10-16T14:55:54.210Z,10.60
2018-10-16T14:58:22.609Z,13.13
2018-10-16T15:00:51.049Z,10.47
2018-10-16T15:03:19.495Z,20.87
2018-10-16T15:05:47.914Z,11.77
2018-10-16T15:08:16.422Z,16.33
2018-10-16T15:10:44.922Z,14.90
2018-10-16T15:13:13.340Z,14.67
2018-10-16T15:15:41.774Z,13.17
2018-10-16T15:18:10.208Z,14.73
2018-10-16T15:20:38.751Z,14.27
2018-10-16T15:23:07.168Z,15.47
2018-10-16T15:25:36.469Z,14.83
2018-10-16T15:28:05.262Z,14.50
2018-10-16T15:30:33.915Z,20.60
2018-10-16T15:33:02.382Z,21.33
2018-10-16T15:35:30.785Z,13.27
2018-10-16T15:37:59.215Z,9.30
2018-10-16T15:40:27.665Z,16.90
2018-10-16T15:42:56.175Z,14.53
2018-10-16T15:45:25.138Z,13.90
2018-10-16T15:47:53.669Z,12.63
2018-10-16T15:50:22.193Z,19.50
2018-10-16T15:52:50.758Z,12.47
2018-10-16T15:55:19.136Z,12.57
2018-10-16T15:57:47.631Z,13.73
2018-10-16T16:00:17.085Z,17.20
2018-10-16T16:02:45.398Z,16.73
2018-10-16T16:05:13.867Z,8.73
2018-10-16T16:07:42.382Z,14.50
2018-10-16T16:10:13.441Z,16.03
2018-10-16T16:12:41.948Z,15.20
2018-10-16T16:15:11.451Z,9.77
2018-10-16T16:17:39.888Z,14.47
2018-10-16T16:20:10.139Z,13.43
2018-10-16T16:22:38.650Z,14.83
2018-10-16T16:25:08.642Z,15.93
2018-10-16T16:27:40.339Z,10.37
2018-10-16T16:30:11.106Z,12.00
2018-10-16T16:32:39.690Z,13.40
2018-10-16T16:35:08.214Z,14.17
2018-10-16T16:37:36.718Z,13.27
2018-10-16T16:40:06.820Z,14.07
2018-10-16T16:42:35.172Z,12.93
2018-10-16T16:45:03.775Z,16.90
2018-10-16T16:47:32.871Z,9.80
2018-10-16T16:50:01.406Z,14.70
2018-10-16T16:52:29.765Z,12.03
2018-10-16T16:54:58.183Z,13.23
2018-10-16T16:57:26.630Z,21.77
2018-10-16T16:59:55.074Z,12.43
2018-10-16T17:02:23.508Z,15.43
2018-10-16T17:04:51.952Z,16.90
2018-10-16T17:07:20.450Z,16.37
2018-10-16T17:09:49.205Z,21.07
2018-10-16T17:12:17.643Z,13.43
2018-10-16T17:14:46.121Z,10.37
2018-10-16T17:17:14.512Z,18.87
2018-10-16T17:19:42.982Z,15.13
2018-10-16T17:22:11.453Z,18.53
2018-10-16T17:24:40.056Z,17.53
2018-10-16T17:27:08.482Z,12.53
2018-10-16T17:29:36.898Z,14.27
2018-10-16T17:32:05.430Z,14.83
2018-10-16T17:34:33.843Z,15.90
2018-10-16T17:37:02.254Z,15.67
2018-10-16T17:39:30.708Z,14.07
2018-10-16T17:41:59.291Z,16.00
2018-10-16T17:44:28.007Z,16.33
2018-10-16T17:46:56.398Z,14.33
2018-10-16T17:49:24.788Z,16.27
2018-10-16T17:51:53.481Z,17.80
2018-10-16T17:54:22.066Z,16.77
2018-10-16T17:56:50.487Z,16.77
2018-10-16T17:59:18.961Z,16.87
2018-10-16T18:01:47.379Z,15.37
2018-10-16T18:04:15.816Z,14.17
2018-10-16T18:06:44.386Z,18.90
2018-10-16T18:09:12.858Z,21.43
2018-10-16T18:11:41.571Z,15.73
2018-10-16T18:14:10.153Z,17.20
2018-10-16T18:16:38.582Z,14.77
2018-10-16T18:19:07.479Z,18.33
2018-10-16T18:21:35.887Z,18.40
2018-10-16T18:24:04.420Z,13.30
2018-10-16T18:26:33.101Z,17.43
2018-10-16T18:29:01.499Z,18.67
2018-10-16T18:31:30.035Z,19.53
2018-10-16T18:33:58.471Z,19.77
2018-10-16T18:36:27.603Z,20.87
2018-10-16T18:38:56.521Z,19.20
2018-10-16T18:41:25.102Z,19.27
2018-10-16T18:43:53.646Z,18.73
2018-10-16T18:46:22.070Z,18.53
2018-10-16T18:48:50.729Z,18.07
2018-10-16T18:51:19.023Z,18.40
2018-10-16T18:53:47.658Z,22.10
2018-10-16T18:56:16.065Z,18.60
2018-10-16T18:58:44.621Z,20.03
2018-10-16T19:01:13.025Z,16.13
2018-10-16T19:03:41.736Z,14.53
2018-10-16T19:06:10.411Z,15.50
2018-10-16T19:08:38.891Z,24.17
2018-10-16T19:11:07.386Z,19.47
2018-10-16T19:13:36.010Z,19.63
2018-10-16T19:16:04.798Z,24.97
2018-10-16T19:18:33.300Z,23.23
2018-10-16T19:21:01.897Z,16.27
2018-10-16T19:23:30.245Z,16.63
2018-10-16T19:25:58.647Z,16.77
2018-10-16T19:28:27.111Z,19.57
2018-10-16T19:30:55.586Z,14.83
2018-10-16T19:33:24.230Z,14.67
2018-10-16T19:35:52.744Z,16.40
2018-10-16T19:38:21.677Z,25.33
2018-10-16T19:40:50.159Z,22.70
2018-10-16T19:43:18.679Z,18.43
2018-10-16T19:45:47.254Z,17.37
2018-10-16T19:48:15.704Z,21.67
2018-10-16T19:50:44.100Z,24.80
2018-10-16T19:53:12.526Z,19.60
2018-10-16T19:55:47.367Z,21.50
2018-10-16T19:58:15.832Z,19.33
2018-10-16T20:00:44.241Z,18.37
2018-10-16T20:03:12.730Z,19.93
2018-10-16T20:05:41.151Z,19.80
2018-10-16T20:08:09.662Z,19.47
2018-10-16T20:10:38.075Z,20.43
2018-10-16T20:13:06.545Z,20.40
2018-10-16T20:15:35.152Z,17.47
2018-10-16T20:18:03.566Z,17.50
2018-10-16T20:20:31.950Z,21.30
2018-10-16T20:23:00.367Z,18.67
2018-10-16T20:25:29.963Z,18.47
2018-10-16T20:27:58.525Z,16.67
2018-10-16T20:30:26.990Z,18.63
2018-10-16T20:32:55.446Z,21.80
2018-10-16T20:35:23.867Z,18.03
2018-10-16T20:37:52.325Z,23.23
2018-10-16T20:40:20.814Z,18.30
2018-10-16T20:42:49.252Z,17.97
2018-10-16T20:45:17.655Z,16.37
2018-10-16T20:47:46.093Z,21.70
2018-10-16T20:50:14.648Z,17.40
2018-10-16T20:55:16.847Z,17.07
2018-10-16T20:57:45.268Z,19.57
2018-10-16T21:00:13.708Z,17.33
2018-10-16T21:02:42.121Z,20.00
2018-10-16T21:05:10.850Z,17.83
2018-10-16T21:07:39.045Z,22.80
2018-10-16T21:10:08.070Z,18.60
2018-10-16T21:12:36.507Z,16.80
2018-10-16T21:15:05.464Z,18.57
2018-10-16T21:17:34.056Z,19.30
2018-10-16T21:20:02.853Z,18.73
2018-10-16T21:22:31.512Z,19.17
2018-10-16T21:24:59.929Z,19.40
2018-10-16T21:27:28.602Z,18.57
2018-10-16T21:29:57.273Z,19.07
2018-10-16T21:32:25.833Z,17.27
2018-10-16T21:34:54.263Z,23.53
2018-10-16T21:37:22.846Z,18.53
2018-10-16T21:39:51.383Z,21.83
2018-10-16T21:42:19.777Z,18.87
2018-10-16T21:44:48.220Z,17.17
2018-10-16T21:47:16.767Z,19.43
2018-10-16T21:49:45.136Z,17.67
2018-10-16T21:52:13.597Z,21.23
2018-10-16T21:54:42.005Z,20.73
2018-10-16T21:57:10.416Z,18.93
2018-10-16T21:59:38.988Z,21.10
2018-10-16T22:02:13.197Z,20.23
2018-10-16T22:04:41.638Z,15.57
2018-10-16T22:07:10.348Z,16.00
2018-10-16T22:09:39.658Z,17.23
2018-10-16T22:12:08.138Z,21.70
2018-10-16T22:14:36.530Z,23.80
2018-10-16T22:17:05.245Z,22.20
2018-10-16T22:19:33.677Z,20.07
2018-10-16T22:22:02.142Z,21.13
2018-10-16T22:24:30.573Z,17.70
2018-10-16T22:26:59.065Z,19.10
2018-10-16T22:29:27.519Z,21.40
2018-10-16T22:31:55.920Z,17.20
2018-10-16T22:34:24.369Z,21.87
2018-10-16T22:36:52.783Z,19.23
2018-10-16T22:39:21.269Z,17.67
2018-10-16T22:41:49.675Z,17.30
2018-10-16T22:44:18.097Z,17.87
2018-10-16T22:46:46.512Z,21.83
2018-10-16T22:49:15.030Z,19.77
2018-10-16T22:51:43.452Z,18.63
2018-10-16T22:54:11.890Z,17.40
2018-10-16T22:56:40.284Z,21.00
2018-10-16T22:59:08.701Z,17.33
2018-10-16T23:01:37.179Z,22.63
2018-10-16T23:04:05.616Z,16.20
2018-10-16T23:06:33.978Z,17.70
2018-10-16T23:09:02.425Z,16.10
2018-10-16T23:11:30.884Z,18.20
2018-10-16T23:13:59.253Z,14.37
2018-10-16T23:16:27.678Z,15.27
2018-10-16T23:18:56.161Z,15.53
2018-10-16T23:21:24.581Z,19.97
2018-10-16T23:23:52.985Z,19.53
2018-10-16T23:26:21.449Z,19.53
2018-10-16T23:28:49.865Z,18.73
2018-10-16T23:31:18.293Z,16.07
2018-10-16T23:33:46.726Z,18.17
2018-10-16T23:36:15.172Z,18.33
2018-10-16T23:38:43.649Z,15.97
2018-10-16T23:41:12.060Z,15.97
2018-10-16T23:43:40.539Z,15.67
2018-10-16T23:46:08.873Z,15.63
2018-10-16T23:48:37.549Z,16.27
2018-10-16T23:51:06.714Z,17.83
2018-10-16T23:53:35.113Z,14.93
2018-10-16T23:56:03.734Z,15.73
2018-10-16T23:58:32.138Z,16.07
